createdAt,value
2023-04-24T00:01:49.020Z,94303.31
2023-04-24T00:04:18.311Z,94308.00
2023-04-24T00:06:50.591Z,94295.47
2023-04-24T00:09:18.649Z,94291.50
2023-04-24T00:11:46.576Z,94288.38
2023-04-24T00:14:15.878Z,94279.09
2023-04-24T00:16:43.868Z,94282.94
2023-04-24T00:19:12.251Z,94285.28
2023-04-24T00:21:40.202Z,94284.03
2023-04-24T00:24:10.043Z,94278.59
2023-04-24T00:26:37.924Z,94278.94
2023-04-24T00:29:05.912Z,94283.00
2023-04-24T00:31:35.970Z,94288.22
2023-04-24T00:34:04.337Z,94281.34
2023-04-24T00:36:33.545Z,94284.66
2023-04-24T00:39:01.457Z,94291.47
2023-04-24T00:41:29.424Z,94284.84
2023-04-24T00:43:57.403Z,94275.41
2023-04-24T00:46:25.438Z,94276.78
2023-04-24T00:48:55.127Z,94279.63
2023-04-24T00:51:23.147Z,94284.00
2023-04-24T00:53:52.091Z,94275.03
2023-04-24T00:56:20.942Z,94266.28
2023-04-24T00:58:49.769Z,94281.84
2023-04-24T01:01:18.058Z,94280.69
2023-04-24T01:03:46.716Z,94278.16
2023-04-24T01:06:16.379Z,94277.38
2023-04-24T01:08:45.306Z,94272.97
2023-04-24T01:11:13.661Z,94280.78
2023-04-24T01:13:42.192Z,94273.59
2023-04-24T01:16:10.380Z,94251.91
2023-04-24T01:18:39.290Z,94258.34
2023-04-24T01:21:08.806Z,94263.91
2023-04-24T01:23:38.168Z,94257.16
2023-04-24T01:26:06.203Z,94247.53
2023-04-24T01:28:34.246Z,94242.94
2023-04-24T01:31:02.174Z,94238.59
2023-04-24T01:33:30.237Z,94247.56
2023-04-24T01:35:58.788Z,94252.66
2023-04-24T01:38:26.853Z,94248.97
2023-04-24T01:40:56.201Z,94244.34
2023-04-24T01:43:24.148Z,94223.44
2023-04-24T01:45:52.067Z,94241.63
2023-04-24T01:48:20.269Z,94243.97
2023-04-24T01:50:48.854Z,94248.16
2023-04-24T01:53:16.829Z,94243.09
2023-04-24T01:55:44.891Z,94240.25
2023-04-24T01:58:14.179Z,94242.22
2023-04-24T02:00:42.170Z,94233.97
2023-04-24T02:03:10.321Z,94234.59
2023-04-24T02:05:38.386Z,94243.88
2023-04-24T02:08:06.323Z,94242.56
2023-04-24T02:10:34.171Z,94237.50
2023-04-24T02:13:02.069Z,94241.44
2023-04-24T02:15:31.379Z,94237.09
2023-04-24T02:17:59.375Z,94231.53
2023-04-24T02:20:27.630Z,94235.28
2023-04-24T02:22:57.793Z,94224.16
2023-04-24T02:25:26.074Z,94228.88
2023-04-24T02:27:55.091Z,94235.50
2023-04-24T02:30:23.044Z,94228.59
2023-04-24T02:32:52.611Z,94227.72
2023-04-24T02:35:21.836Z,94220.72
2023-04-24T02:37:49.872Z,94219.38
2023-04-24T02:40:17.824Z,94215.03
2023-04-24T02:42:45.780Z,94193.13
2023-04-24T02:45:13.638Z,94204.41
2023-04-24T02:47:41.668Z,94206.38
2023-04-24T02:50:11.578Z,94210.28
2023-04-24T02:52:39.613Z,94206.72
2023-04-24T02:55:09.025Z,94205.28
2023-04-24T02:57:36.955Z,94203.84
2023-04-24T03:00:07.891Z,94205.03
2023-04-24T03:02:35.900Z,94212.97
2023-04-24T03:05:05.664Z,94208.56
2023-04-24T03:07:34.925Z,94210.38
2023-04-24T03:10:02.770Z,94222.50
2023-04-24T03:12:30.722Z,94230.19
2023-04-24T03:14:58.625Z,94219.22
2023-04-24T03:17:26.712Z,94223.38
2023-04-24T03:19:54.595Z,94218.28
2023-04-24T03:22:22.558Z,94223.66
2023-04-24T03:24:51.865Z,94221.66
2023-04-24T03:27:20.108Z,94211.84
2023-04-24T03:29:48.025Z,94227.94
2023-04-24T03:32:16.036Z,94226.78
2023-04-24T03:34:43.937Z,94230.09
2023-04-24T03:37:11.987Z,94223.63
2023-04-24T03:39:40.036Z,94220.94
2023-04-24T03:42:09.526Z,94225.72
2023-04-24T03:44:37.793Z,94217.16
2023-04-24T03:47:06.129Z,94217.63
2023-04-24T03:49:34.018Z,94221.56
2023-04-24T03:52:02.034Z,94223.09
2023-04-24T03:54:29.909Z,94221.94
2023-04-24T03:56:58.055Z,94209.25
2023-04-24T03:59:27.412Z,94227.69
2023-04-24T04:01:55.538Z,94219.19
2023-04-24T04:04:23.912Z,94220.16
2023-04-24T04:06:52.141Z,94226.97
2023-04-24T04:09:20.139Z,94222.06
2023-04-24T04:11:48.068Z,94233.19
2023-04-24T04:14:15.957Z,94234.50
2023-04-24T04:16:45.621Z,94229.06
2023-04-24T04:19:13.628Z,94223.94
2023-04-24T04:21:41.614Z,94217.50
2023-04-24T04:24:10.775Z,94223.25
2023-04-24T04:26:38.814Z,94230.59
2023-04-24T04:29:07.750Z,94227.81
2023-04-24T04:31:35.697Z,94227.38
2023-04-24T04:34:05.003Z,94225.03
2023-04-24T04:36:32.851Z,94234.72
2023-04-24T04:39:01.122Z,94240.03
2023-04-24T04:41:29.054Z,94241.44
2023-04-24T04:43:59.567Z,94241.97
2023-04-24T04:46:28.157Z,94246.72
2023-04-24T04:48:57.723Z,94244.50
2023-04-24T04:51:27.017Z,94245.47
2023-04-24T04:53:54.911Z,94254.50
2023-04-24T04:56:23.003Z,94258.81
2023-04-24T04:58:50.904Z,94256.13
2023-04-24T05:01:18.832Z,94255.94
2023-04-24T05:03:46.964Z,94258.03
2023-04-24T05:06:15.128Z,94264.75
2023-04-24T05:08:44.567Z,94262.53
2023-04-24T05:11:13.582Z,94258.59
2023-04-24T05:13:41.570Z,94243.88
2023-04-24T05:16:09.749Z,94264.22
2023-04-24T05:18:37.781Z,94255.34
2023-04-24T05:21:05.772Z,94262.69
2023-04-24T05:23:33.809Z,94234.38
2023-04-24T05:26:04.577Z,94258.06
2023-04-24T05:28:34.298Z,94250.22
2023-04-24T05:31:02.244Z,94245.28
2023-04-24T05:33:30.247Z,94262.81
2023-04-24T05:35:58.711Z,94255.44
2023-04-24T05:38:26.815Z,94254.38
2023-04-24T05:40:54.808Z,94256.97
2023-04-24T05:43:24.313Z,94256.13
2023-04-24T05:45:52.319Z,94263.22
2023-04-24T05:48:20.394Z,94269.13
2023-04-24T05:50:48.999Z,94267.97
2023-04-24T05:53:17.651Z,94261.97
2023-04-24T05:55:45.783Z,94265.09
2023-04-24T05:58:14.017Z,94259.16
2023-04-24T06:00:44.638Z,94239.38
2023-04-24T06:03:12.834Z,94258.47
2023-04-24T06:05:40.888Z,94260.94
2023-04-24T06:08:08.962Z,94263.31
2023-04-24T06:10:37.081Z,94259.13
2023-04-24T06:13:05.020Z,94262.78
2023-04-24T06:15:33.004Z,94255.88
2023-04-24T06:18:02.397Z,94256.31
2023-04-24T06:20:30.483Z,94257.97
2023-04-24T06:22:58.678Z,94261.88
2023-04-24T06:25:28.366Z,94267.78
2023-04-24T06:27:56.370Z,94254.44
2023-04-24T06:30:24.407Z,94253.09
2023-04-24T06:32:53.201Z,94252.56
2023-04-24T06:35:23.087Z,94241.97
2023-04-24T06:37:51.326Z,94251.69
2023-04-24T06:40:19.799Z,94254.28
2023-04-24T06:42:47.884Z,94264.78
2023-04-24T06:45:15.868Z,94265.38
2023-04-24T06:47:44.309Z,94266.63
2023-04-24T06:50:13.014Z,94263.72
2023-04-24T06:52:43.087Z,94268.16
2023-04-24T06:55:12.174Z,94265.81
2023-04-24T06:57:40.106Z,94259.63
2023-04-24T07:00:10.414Z,94264.44
2023-04-24T07:02:38.757Z,94256.25
2023-04-24T07:05:07.973Z,94255.84
2023-04-24T07:07:38.828Z,94248.59
2023-04-24T07:10:09.736Z,94246.84
2023-04-24T07:12:38.559Z,94248.44
2023-04-24T07:15:08.941Z,94236.53
2023-04-24T07:17:37.099Z,94245.28
2023-04-24T07:20:06.629Z,94249.13
2023-04-24T07:22:34.546Z,94239.50
2023-04-24T07:25:02.740Z,94238.78
2023-04-24T07:27:32.050Z,94232.16
2023-04-24T07:29:59.907Z,94238.81
2023-04-24T07:32:27.797Z,94232.00
2023-04-24T07:34:56.295Z,94218.53
2023-04-24T07:37:24.996Z,94225.16
2023-04-24T07:39:52.966Z,94222.94
2023-04-24T07:42:20.928Z,94219.94
2023-04-24T07:44:50.207Z,94224.75
2023-04-24T07:47:18.241Z,94220.28
2023-04-24T07:49:46.272Z,94216.59
2023-04-24T07:52:14.216Z,94212.56
2023-04-24T07:54:44.735Z,94210.34
2023-04-24T07:57:12.830Z,94210.72
2023-04-24T07:59:41.094Z,94202.41
2023-04-24T08:02:10.818Z,94214.28
2023-04-24T08:04:38.905Z,94211.28
2023-04-24T08:07:06.916Z,94210.78
2023-04-24T08:09:34.835Z,94209.78
2023-04-24T08:12:03.646Z,94206.13
2023-04-24T08:14:31.825Z,94199.38
2023-04-24T08:17:01.210Z,94200.16
2023-04-24T08:19:30.515Z,94192.03
2023-04-24T08:21:58.391Z,94195.91
2023-04-24T08:24:26.406Z,94196.81
2023-04-24T08:26:55.446Z,94194.19
2023-04-24T08:29:23.479Z,94184.97
2023-04-24T08:31:51.627Z,94186.56
2023-04-24T08:34:19.572Z,94188.13
2023-04-24T08:36:49.267Z,94188.97
2023-04-24T08:39:18.105Z,94185.41
2023-04-24T08:41:46.686Z,94176.94
2023-04-24T08:44:16.770Z,94177.97
2023-04-24T08:46:46.349Z,94167.09
2023-04-24T08:49:17.289Z,94161.13
2023-04-24T08:51:45.834Z,94169.53
2023-04-24T08:54:16.728Z,94162.56
2023-04-24T08:56:46.589Z,94152.13
2023-04-24T08:59:15.291Z,94137.88
2023-04-24T09:01:44.073Z,94141.38
2023-04-24T09:04:13.988Z,94133.38
2023-04-24T09:06:42.718Z,94155.22
2023-04-24T09:09:12.843Z,94148.50
2023-04-24T09:11:43.685Z,94135.22
2023-04-24T09:14:12.335Z,94138.69
2023-04-24T09:16:40.330Z,94137.00
2023-04-24T09:19:08.320Z,94132.91
2023-04-24T09:21:37.190Z,94123.25
2023-04-24T09:24:08.211Z,94125.00
2023-04-24T09:26:38.229Z,94114.09
2023-04-24T09:29:07.537Z,94113.75
2023-04-24T09:31:35.861Z,94112.09
2023-04-24T09:34:08.125Z,94104.56
2023-04-24T09:36:39.252Z,94105.06
2023-04-24T09:39:11.819Z,94107.41
2023-04-24T09:41:47.074Z,94092.41
2023-04-24T09:44:17.942Z,94100.38
2023-04-24T09:46:47.667Z,94101.28
2023-04-24T09:49:17.322Z,94098.06
2023-04-24T09:51:45.570Z,94106.06
2023-04-24T09:54:17.917Z,94095.75
2023-04-24T09:56:47.455Z,94091.91
2023-04-24T09:59:18.744Z,94085.53
2023-04-24T10:01:47.399Z,94080.31
2023-04-24T10:04:20.558Z,94080.31
2023-04-24T10:06:49.882Z,94082.06
2023-04-24T10:09:18.564Z,94071.78
2023-04-24T10:11:48.643Z,94056.84
2023-04-24T10:14:19.219Z,94042.78
2023-04-24T10:16:48.162Z,94064.84
2023-04-24T10:19:17.060Z,94061.47
2023-04-24T10:21:47.711Z,94046.66
2023-04-24T10:24:16.268Z,94038.50
2023-04-24T10:26:44.884Z,94040.91
2023-04-24T10:29:13.862Z,94045.41
2023-04-24T10:31:46.632Z,94040.53
2023-04-24T10:34:16.737Z,94030.81
2023-04-24T10:36:48.425Z,94024.38
2023-04-24T10:39:18.853Z,94039.41
2023-04-24T10:41:47.463Z,94010.25
2023-04-24T10:44:17.136Z,94026.94
2023-04-24T10:46:48.727Z,94023.72
2023-04-24T10:49:16.759Z,94016.28
2023-04-24T10:51:50.113Z,94016.34
2023-04-24T10:54:25.424Z,94005.47
2023-04-24T10:56:54.092Z,93995.88
2023-04-24T10:59:29.467Z,93986.91
2023-04-24T11:01:58.913Z,93995.66
2023-04-24T11:04:36.410Z,93990.63
2023-04-24T11:07:05.839Z,93998.56
2023-04-24T11:09:37.405Z,93996.25
2023-04-24T11:12:08.052Z,94006.72
2023-04-24T11:15:03.754Z,94002.41
2023-04-24T11:17:35.284Z,93998.44
2023-04-24T11:20:15.393Z,94001.81
2023-04-24T11:22:56.503Z,94018.22
2023-04-24T11:25:26.355Z,94055.25
2023-04-24T11:28:05.643Z,94059.50
2023-04-24T11:30:34.728Z,94040.06
2023-04-24T11:33:06.543Z,94055.47
2023-04-24T11:35:41.209Z,94022.84
2023-04-24T11:40:40.816Z,94034.56
2023-04-24T11:43:10.912Z,94042.34
2023-04-24T11:45:38.872Z,94029.63
2023-04-24T11:48:08.319Z,94017.88
2023-04-24T11:50:36.859Z,94023.94
2023-04-24T11:53:06.568Z,94015.72
2023-04-24T11:55:34.554Z,94011.59
2023-04-24T11:58:02.727Z,94017.91
2023-04-24T12:00:32.741Z,93995.66
2023-04-24T12:03:10.536Z,93993.28
2023-04-24T12:05:39.440Z,94001.72
2023-04-24T12:08:07.748Z,93995.09
2023-04-24T12:10:36.785Z,93998.72
2023-04-24T12:13:05.132Z,93991.69
2023-04-24T12:15:33.305Z,93985.25
2023-04-24T12:18:01.878Z,93988.63
2023-04-24T12:20:32.780Z,93967.69
2023-04-24T12:23:03.026Z,93996.69
2023-04-24T12:25:32.458Z,93985.44
2023-04-24T12:28:12.772Z,93981.41
2023-04-24T12:30:44.033Z,93954.53
2023-04-24T12:33:12.392Z,93922.03
2023-04-24T12:35:43.084Z,93944.63
2023-04-24T12:38:13.849Z,93951.00
2023-04-24T12:40:43.521Z,93923.44
2023-04-24T12:43:18.125Z,93940.38
2023-04-24T12:45:46.495Z,93934.09
2023-04-24T12:48:15.741Z,93942.97
2023-04-24T12:50:47.547Z,93922.19
2023-04-24T12:53:16.337Z,93919.38
2023-04-24T12:55:45.596Z,93921.06
2023-04-24T12:58:13.920Z,93890.03
2023-04-24T13:00:44.481Z,93891.09
2023-04-24T13:03:12.874Z,93892.78
2023-04-24T13:05:41.257Z,93898.38
2023-04-24T13:08:10.695Z,93886.06
2023-04-24T13:10:39.004Z,93866.69
2023-04-24T13:13:07.009Z,93873.16
2023-04-24T13:15:35.457Z,93880.81
2023-04-24T13:18:03.785Z,93870.34
2023-04-24T13:20:32.217Z,93860.25
2023-04-24T13:23:00.138Z,93859.69
2023-04-24T13:25:30.769Z,93860.22
2023-04-24T13:27:58.632Z,93855.94
2023-04-24T13:30:26.601Z,93848.91
2023-04-24T13:32:54.557Z,93852.44
2023-04-24T13:35:22.559Z,93855.78
2023-04-24T13:37:52.872Z,93838.25
2023-04-24T13:40:23.891Z,93844.78
2023-04-24T13:42:55.495Z,93842.09
2023-04-24T13:45:25.175Z,93839.44
2023-04-24T13:47:55.330Z,93841.28
2023-04-24T13:50:23.577Z,93832.72
2023-04-24T13:52:51.677Z,93826.91
2023-04-24T13:55:19.813Z,93796.31
2023-04-24T13:57:47.912Z,93809.63
2023-04-24T14:00:18.418Z,93806.53
2023-04-24T14:02:46.470Z,93807.47
2023-04-24T14:05:15.203Z,93801.78
2023-04-24T14:07:43.602Z,93803.09
2023-04-24T14:10:12.260Z,93798.88
2023-04-24T14:12:46.403Z,93777.75
2023-04-24T14:15:14.700Z,93795.25
2023-04-24T14:17:44.275Z,93788.44
2023-04-24T14:20:14.568Z,93786.16
2023-04-24T14:22:43.993Z,93784.72
2023-04-24T14:25:12.424Z,93779.47
2023-04-24T14:27:41.178Z,93765.03
2023-04-24T14:30:10.414Z,93753.19
2023-04-24T14:32:41.049Z,93780.47
2023-04-24T14:35:11.108Z,93778.38
2023-04-24T14:37:39.284Z,93784.13
2023-04-24T14:40:26.690Z,93793.53
2023-04-24T14:42:58.237Z,93785.47
2023-04-24T14:45:26.300Z,93773.69
2023-04-24T14:47:54.574Z,93779.91
2023-04-24T14:50:24.895Z,93784.38
2023-04-24T14:52:53.157Z,93777.97
2023-04-24T14:55:22.122Z,93787.19
2023-04-24T14:57:50.128Z,93780.59
2023-04-24T15:00:19.189Z,93800.63
2023-04-24T15:02:47.428Z,93776.69
2023-04-24T15:05:16.014Z,93781.41
2023-04-24T15:07:46.539Z,93776.50
2023-04-24T15:10:14.458Z,93771.56
2023-04-24T15:12:42.455Z,93765.78
2023-04-24T15:15:11.473Z,93763.78
2023-04-24T15:17:39.777Z,93749.34
2023-04-24T15:20:08.928Z,93780.97
2023-04-24T15:22:37.484Z,93772.25
2023-04-24T15:25:08.131Z,93768.50
2023-04-24T15:27:43.649Z,93768.53
2023-04-24T15:30:12.763Z,93756.91
2023-04-24T15:32:49.948Z,93768.03
2023-04-24T15:35:18.639Z,93759.53
2023-04-24T15:37:47.014Z,93745.25
2023-04-24T15:40:17.662Z,93766.59
2023-04-24T15:42:46.423Z,93768.91
2023-04-24T15:45:14.758Z,93755.16
2023-04-24T15:47:42.813Z,93759.22
2023-04-24T15:50:14.340Z,93747.34
2023-04-24T15:52:43.088Z,93755.94
2023-04-24T15:55:11.866Z,93757.38
2023-04-24T15:57:41.330Z,93755.78
2023-04-24T16:00:11.355Z,93757.06
2023-04-24T16:02:41.236Z,93757.00
2023-04-24T16:05:09.906Z,93760.16
2023-04-24T16:07:39.816Z,93755.31
2023-04-24T16:10:08.551Z,93784.91
2023-04-24T16:12:36.724Z,93806.59
2023-04-24T16:15:09.522Z,93831.00
2023-04-24T16:17:38.327Z,93839.25
2023-04-24T16:20:10.182Z,93847.31
2023-04-24T16:22:40.075Z,93852.09
2023-04-24T16:25:09.355Z,93847.34
2023-04-24T16:27:38.823Z,93847.03
2023-04-24T16:30:10.632Z,93854.16
2023-04-24T16:32:39.286Z,93867.47
2023-04-24T16:35:08.420Z,93882.09
2023-04-24T16:37:37.142Z,93899.44
2023-04-24T16:40:10.820Z,93904.91
2023-04-24T16:42:40.079Z,93906.47
2023-04-24T16:45:11.658Z,93902.13
2023-04-24T16:47:40.322Z,93896.78
2023-04-24T16:50:10.050Z,93912.91
2023-04-24T16:52:39.448Z,93912.50
2023-04-24T16:55:10.286Z,93916.28
2023-04-24T16:57:39.171Z,93916.06
2023-04-24T17:00:11.659Z,93915.91
2023-04-24T17:02:41.006Z,93910.47
2023-04-24T17:05:10.280Z,93909.75
2023-04-24T17:07:38.999Z,93912.56
2023-04-24T17:10:09.468Z,93906.75
2023-04-24T17:12:38.163Z,93909.41
2023-04-24T17:15:08.008Z,93899.06
2023-04-24T17:17:42.790Z,93893.72
2023-04-24T17:20:22.080Z,93878.66
2023-04-24T17:22:53.157Z,93871.19
2023-04-24T17:25:22.282Z,93875.59
2023-04-24T17:27:51.022Z,93871.59
2023-04-24T17:30:19.640Z,93890.09
2023-04-24T17:32:51.118Z,93902.06
2023-04-24T17:35:23.110Z,93908.69
2023-04-24T17:37:52.161Z,93901.84
2023-04-24T17:40:20.947Z,93905.41
2023-04-24T17:42:51.241Z,93917.94
2023-04-24T17:45:19.281Z,93923.16
2023-04-24T17:47:47.332Z,93930.75
2023-04-24T17:50:16.833Z,93937.75
2023-04-24T17:52:44.729Z,93945.59
2023-04-24T17:55:12.837Z,93935.16
2023-04-24T17:57:41.141Z,93941.13
2023-04-24T18:00:13.288Z,93933.94
2023-04-24T18:02:41.397Z,93951.81
2023-04-24T18:05:09.540Z,93962.53
2023-04-24T18:07:39.285Z,93978.88
2023-04-24T18:10:08.380Z,93987.78
2023-04-24T18:12:36.257Z,93994.41
2023-04-24T18:15:14.361Z,93985.84
2023-04-24T18:17:42.972Z,93994.06
2023-04-24T18:20:12.006Z,93972.44
2023-04-24T18:22:41.846Z,93998.69
2023-04-24T18:25:14.035Z,93985.19
2023-04-24T18:27:42.637Z,93961.03
2023-04-24T18:30:14.719Z,93938.38
2023-04-24T18:32:43.319Z,93922.44
2023-04-24T18:35:11.737Z,93911.88
2023-04-24T18:37:41.694Z,93903.47
2023-04-24T18:40:11.362Z,93910.06
2023-04-24T18:42:39.642Z,93925.50
2023-04-24T18:45:08.795Z,93944.50
2023-04-24T18:47:37.072Z,93940.06
2023-04-24T18:50:05.462Z,93967.69
2023-04-24T18:52:33.548Z,93963.50
2023-04-24T18:55:03.667Z,93973.69
2023-04-24T18:57:32.316Z,93971.91
2023-04-24T19:00:01.223Z,93971.19
2023-04-24T19:02:29.423Z,93967.13
2023-04-24T19:04:57.402Z,93954.22
2023-04-24T19:07:25.239Z,93957.09
2023-04-24T19:09:53.214Z,93963.75
2023-04-24T19:12:23.205Z,93969.75
2023-04-24T19:14:51.748Z,93963.16
2023-04-24T19:17:23.633Z,93973.22
2023-04-24T19:19:52.434Z,93963.59
2023-04-24T19:22:20.980Z,93970.06
2023-04-24T19:24:49.097Z,93954.69
2023-04-24T19:27:17.162Z,93933.25
2023-04-24T19:29:46.632Z,93919.63
2023-04-24T19:32:14.669Z,93927.22
2023-04-24T19:34:42.696Z,93915.19
2023-04-24T19:37:11.164Z,93894.75
2023-04-24T19:39:39.146Z,93903.34
2023-04-24T19:42:07.775Z,93894.69
2023-04-24T19:44:35.893Z,93911.69
2023-04-24T19:47:05.340Z,93921.88
2023-04-24T19:49:33.193Z,93903.06
2023-04-24T19:52:01.360Z,93911.94
2023-04-24T19:54:29.808Z,93887.72
2023-04-24T19:56:58.233Z,93909.75
2023-04-24T19:59:26.175Z,93879.84
2023-04-24T20:01:55.239Z,93914.28
2023-04-24T20:04:25.835Z,93857.72
2023-04-24T20:06:54.047Z,93871.53
2023-04-24T20:09:23.119Z,93880.44
2023-04-24T20:11:52.522Z,93893.22
2023-04-24T20:14:20.672Z,93890.63
2023-04-24T20:16:49.593Z,93892.19
2023-04-24T20:19:17.994Z,93874.94
2023-04-24T20:21:47.739Z,93880.63
2023-04-24T20:24:16.730Z,93866.00
2023-04-24T20:26:45.257Z,93849.41
2023-04-24T20:29:13.985Z,93819.53
2023-04-24T20:31:42.228Z,93808.75
2023-04-24T20:34:10.794Z,93817.56
2023-04-24T20:36:39.220Z,93789.50
2023-04-24T20:39:09.287Z,93801.09
2023-04-24T20:41:38.704Z,93815.72
2023-04-24T20:44:07.067Z,93827.69
2023-04-24T20:46:35.236Z,93822.25
2023-04-24T20:49:03.628Z,93840.47
2023-04-24T20:51:32.441Z,93839.69
2023-04-24T20:54:00.330Z,93829.91
2023-04-24T20:56:29.780Z,93837.72
2023-04-24T20:58:57.918Z,93854.13
2023-04-24T21:01:26.110Z,93861.28
2023-04-24T21:03:58.417Z,93887.06
2023-04-24T21:06:26.500Z,93909.19
2023-04-24T21:08:54.594Z,93903.53
2023-04-24T21:11:22.589Z,93896.34
2023-04-24T21:13:52.180Z,93898.19
2023-04-24T21:16:20.942Z,93871.63
2023-04-24T21:18:48.935Z,93865.50
2023-04-24T21:21:16.941Z,93858.13
2023-04-24T21:23:45.065Z,93861.50
2023-04-24T21:26:16.022Z,93870.69
2023-04-24T21:28:44.819Z,93867.69
2023-04-24T21:31:14.976Z,93845.22
2023-04-24T21:33:42.996Z,93849.47
2023-04-24T21:36:11.300Z,93831.47
2023-04-24T21:38:40.359Z,93828.84
2023-04-24T21:41:08.267Z,93806.00
2023-04-24T21:43:44.036Z,93820.56
2023-04-24T21:46:14.174Z,93834.75
2023-04-24T21:48:42.099Z,93823.38
2023-04-24T21:51:10.277Z,93819.00
2023-04-24T21:53:38.308Z,93821.16
2023-04-24T21:56:06.858Z,93818.56
2023-04-24T21:58:35.784Z,93823.91
2023-04-24T22:01:03.765Z,93824.75
2023-04-24T22:03:33.394Z,93835.56
2023-04-24T22:06:01.435Z,93824.00
2023-04-24T22:08:29.344Z,93833.34
2023-04-24T22:10:57.917Z,93825.16
2023-04-24T22:13:25.896Z,93829.56
2023-04-24T22:15:54.007Z,93822.59
2023-04-24T22:18:24.599Z,93810.16
2023-04-24T22:20:58.586Z,93812.38
2023-04-24T22:23:26.648Z,93818.56
2023-04-24T22:25:54.586Z,93813.38
2023-04-24T22:28:22.500Z,93803.38
2023-04-24T22:30:50.428Z,93800.38
2023-04-24T22:33:18.521Z,93799.13
2023-04-24T22:35:46.477Z,93798.78
2023-04-24T22:38:17.258Z,93792.38
2023-04-24T22:40:45.178Z,93801.69
2023-04-24T22:43:13.465Z,93816.63
2023-04-24T22:45:41.558Z,93798.41
2023-04-24T22:48:09.525Z,93801.47
2023-04-24T22:50:37.576Z,93805.91
2023-04-24T22:53:05.485Z,93799.50
2023-04-24T22:55:34.856Z,93782.63
2023-04-24T22:58:02.954Z,93789.31
2023-04-24T23:00:30.872Z,93811.34
2023-04-24T23:02:58.981Z,93826.88
2023-04-24T23:05:28.065Z,93841.75
2023-04-24T23:07:56.046Z,93860.44
2023-04-24T23:10:26.636Z,93865.16
2023-04-24T23:12:56.083Z,93853.09
2023-04-24T23:15:24.057Z,93844.50
2023-04-24T23:17:52.695Z,93841.53
2023-04-24T23:20:23.576Z,93832.56
2023-04-24T23:22:51.545Z,93831.63
2023-04-24T23:25:20.713Z,93836.19
2023-04-24T23:27:48.667Z,93834.94
2023-04-24T23:30:17.916Z,93845.16
2023-04-24T23:32:45.853Z,93846.94
2023-04-24T23:35:13.960Z,93826.41
2023-04-24T23:37:41.910Z,93845.72
2023-04-24T23:40:11.500Z,93835.72
2023-04-24T23:42:39.559Z,93832.50
2023-04-24T23:45:08.510Z,93836.94
2023-04-24T23:47:37.804Z,93822.22
2023-04-24T23:50:06.875Z,93801.63
2023-04-24T23:52:35.394Z,93804.50
2023-04-24T23:55:04.728Z,93795.16
2023-04-24T23:57:32.682Z,93802.72
